createdAt,value
2023-05-16T00:00:19.227Z,100455.00
2023-05-16T00:02:47.381Z,100447.78
2023-05-16T00:05:19.248Z,100454.56
2023-05-16T00:07:50.018Z,100450.59
2023-05-16T00:10:19.393Z,100447.47
2023-05-16T00:12:58.787Z,100447.53
2023-05-16T00:15:25.745Z,100448.00
2023-05-16T00:17:54.867Z,100457.91
2023-05-16T00:20:54.399Z,100453.63
2023-05-16T00:23:29.923Z,100451.09
2023-05-16T00:25:57.009Z,100449.00
2023-05-16T00:28:24.247Z,100456.91
2023-05-16T00:31:18.229Z,100447.47
2023-05-16T00:33:45.135Z,100448.44
2023-05-16T00:36:12.160Z,100445.75
2023-05-16T00:38:39.269Z,100451.97
2023-05-16T00:41:15.386Z,100452.41
2023-05-16T00:44:17.743Z,100455.69
2023-05-16T00:46:47.741Z,100458.97
2023-05-16T00:49:16.055Z,100459.53
2023-05-16T00:51:46.239Z,100455.88
2023-05-16T00:54:14.940Z,100462.56
2023-05-16T00:56:45.255Z,100469.91
2023-05-16T00:59:23.695Z,100465.66
2023-05-16T01:01:59.029Z,100465.09
2023-05-16T01:04:30.830Z,100461.72
2023-05-16T01:06:58.567Z,100472.59
2023-05-16T01:09:27.923Z,100476.41
2023-05-16T01:12:37.861Z,100470.34
2023-05-16T01:15:39.748Z,100479.09
2023-05-16T01:18:47.237Z,100475.00
2023-05-16T01:21:47.254Z,100473.00
2023-05-16T01:24:45.146Z,100482.88
2023-05-16T01:27:16.017Z,100489.38
2023-05-16T01:29:42.952Z,100478.91
2023-05-16T01:32:09.812Z,100479.16
2023-05-16T01:34:39.649Z,100489.34
2023-05-16T01:37:24.996Z,100487.34
2023-05-16T01:40:16.767Z,100489.44
2023-05-16T01:42:51.036Z,100497.09
2023-05-16T01:45:34.684Z,100507.59
2023-05-16T01:48:27.760Z,100500.03
2023-05-16T01:51:06.301Z,100500.03
2023-05-16T01:53:45.802Z,100490.09
2023-05-16T01:56:26.821Z,100491.78
2023-05-16T01:59:12.045Z,100493.91
2023-05-16T02:01:45.535Z,100490.06
2023-05-16T02:04:24.463Z,100494.28
2023-05-16T02:07:25.950Z,100498.56
2023-05-16T02:09:59.859Z,100501.06
2023-05-16T02:12:29.903Z,100492.16
2023-05-16T02:14:57.245Z,100497.22
2023-05-16T02:17:24.642Z,100502.34
2023-05-16T02:19:55.586Z,100500.63
2023-05-16T02:22:22.862Z,100503.03
2023-05-16T02:24:49.823Z,100499.19
2023-05-16T02:27:16.581Z,100498.81
2023-05-16T02:29:45.864Z,100506.00
2023-05-16T02:32:12.574Z,100498.09
2023-05-16T02:34:45.346Z,100501.06
2023-05-16T02:37:13.478Z,100490.09
2023-05-16T02:39:46.682Z,100511.38
2023-05-16T02:42:13.756Z,100497.03
2023-05-16T02:44:43.132Z,100491.97
2023-05-16T02:47:09.997Z,100495.50
2023-05-16T02:52:18.916Z,100494.34
2023-05-16T02:54:48.781Z,100500.59
2023-05-16T02:57:22.858Z,100492.53
2023-05-16T02:59:49.657Z,100491.81
2023-05-16T03:02:16.310Z,100495.50
2023-05-16T03:04:43.357Z,100493.81
2023-05-16T03:07:10.344Z,100493.50
2023-05-16T03:09:45.927Z,100500.44
2023-05-16T03:12:12.671Z,100483.75
2023-05-16T03:14:45.016Z,100495.50
2023-05-16T03:17:11.768Z,100498.88
2023-05-16T03:19:47.567Z,100498.88
2023-05-16T03:22:20.627Z,100498.75
2023-05-16T03:24:47.434Z,100500.59
2023-05-16T03:27:17.300Z,100504.97
2023-05-16T03:29:44.297Z,100504.13
2023-05-16T03:32:12.205Z,100507.34
2023-05-16T03:34:50.945Z,100512.47
2023-05-16T03:37:20.173Z,100515.69
2023-05-16T03:39:50.013Z,100514.69
2023-05-16T03:42:18.803Z,100520.22
2023-05-16T03:44:48.705Z,100515.69
2023-05-16T03:47:16.093Z,100515.69
2023-05-16T03:49:45.838Z,100518.09
2023-05-16T03:52:14.792Z,100522.91
2023-05-16T03:54:47.058Z,100529.13
2023-05-16T03:57:17.047Z,100532.53
2023-05-16T03:59:47.013Z,100526.16
2023-05-16T04:02:19.874Z,100533.53
2023-05-16T04:04:46.817Z,100529.84
2023-05-16T04:07:16.325Z,100521.94
2023-05-16T04:09:46.213Z,100542.31
2023-05-16T04:12:15.532Z,100549.25
2023-05-16T04:14:49.864Z,100545.72
2023-05-16T04:17:16.686Z,100542.31
2023-05-16T04:19:46.617Z,100543.31
2023-05-16T04:22:13.671Z,100534.94
2023-05-16T04:24:45.386Z,100546.88
2023-05-16T04:27:12.422Z,100549.13
2023-05-16T04:29:41.966Z,100544.00
2023-05-16T04:32:09.003Z,100554.03
2023-05-16T04:34:39.808Z,100544.13
2023-05-16T04:37:08.631Z,100547.66
2023-05-16T04:39:36.979Z,100554.13
2023-05-16T04:42:07.688Z,100555.00
2023-05-16T04:44:34.615Z,100552.44
2023-05-16T04:47:09.199Z,100561.94
2023-05-16T04:49:36.017Z,100566.28
2023-05-16T04:52:03.338Z,100568.16
2023-05-16T04:54:30.017Z,100566.28
2023-05-16T04:56:57.343Z,100555.97
2023-05-16T04:59:27.413Z,100560.22
2023-05-16T05:01:57.279Z,100550.44
2023-05-16T05:04:25.147Z,100566.16
2023-05-16T05:06:54.832Z,100565.16
2023-05-16T05:09:21.979Z,100574.16
2023-05-16T05:11:48.702Z,100569.34
2023-05-16T05:14:17.625Z,100576.72
2023-05-16T05:16:47.238Z,100592.31
2023-05-16T05:19:14.157Z,100590.94
2023-05-16T05:21:43.351Z,100587.41
2023-05-16T05:24:10.413Z,100582.84
2023-05-16T05:26:37.459Z,100600.53
2023-05-16T05:29:06.690Z,100588.69
2023-05-16T05:31:35.057Z,100598.56
2023-05-16T05:34:03.244Z,100591.22
2023-05-16T05:36:33.108Z,100600.59
2023-05-16T05:39:06.634Z,100597.06
2023-05-16T05:41:33.505Z,100595.06
2023-05-16T05:44:00.739Z,100586.38
2023-05-16T05:46:27.948Z,100589.84
2023-05-16T05:48:55.897Z,100599.88
2023-05-16T05:51:29.703Z,100608.19
2023-05-16T05:53:57.654Z,100602.81
2023-05-16T05:56:26.370Z,100607.13
2023-05-16T05:58:59.046Z,100600.03
2023-05-16T06:07:09.060Z,100610.66
2023-05-16T06:09:37.836Z,100615.13
2023-05-16T06:15:02.022Z,100619.44
2023-05-16T06:17:31.286Z,100613.38
2023-05-16T06:20:11.322Z,100618.75
2023-05-16T06:25:19.835Z,100620.03
2023-05-16T06:27:46.655Z,100620.38
2023-05-16T06:30:16.923Z,100615.25
2023-05-16T06:32:46.855Z,100619.06
2023-05-16T06:35:13.794Z,100624.72
2023-05-16T06:37:42.895Z,100643.34
2023-05-16T06:40:12.085Z,100640.50
2023-05-16T06:42:39.722Z,100646.84
2023-05-16T06:45:13.722Z,100639.59
2023-05-16T06:47:50.106Z,100648.47
2023-05-16T06:50:20.082Z,100648.41
2023-05-16T06:52:56.062Z,100643.94
2023-05-16T06:55:23.883Z,100659.88
2023-05-16T06:58:18.289Z,100661.25
2023-05-16T07:00:55.105Z,100653.81
2023-05-16T07:03:25.316Z,100654.41
2023-05-16T07:05:55.455Z,100665.03
2023-05-16T07:08:22.244Z,100662.00
2023-05-16T07:10:55.162Z,100663.69
2023-05-16T07:13:21.900Z,100669.56
2023-05-16T07:15:48.669Z,100667.25
2023-05-16T07:18:18.157Z,100669.84
2023-05-16T07:20:51.527Z,100672.81
2023-05-16T07:23:21.045Z,100665.66
2023-05-16T07:25:54.093Z,100668.53
2023-05-16T07:28:22.125Z,100673.63
2023-05-16T07:30:58.902Z,100670.72
2023-05-16T07:33:28.172Z,100685.72
2023-05-16T07:36:07.786Z,100675.97
2023-05-16T07:38:47.957Z,100674.03
2023-05-16T07:41:14.810Z,100674.41
2023-05-16T07:43:41.539Z,100685.44
2023-05-16T07:46:08.438Z,100674.22
2023-05-16T07:48:35.383Z,100683.03
2023-05-16T07:51:02.190Z,100683.03
2023-05-16T07:53:31.311Z,100701.19
2023-05-16T07:55:58.113Z,100691.06
2023-05-16T07:58:25.250Z,100688.78
2023-05-16T08:00:52.858Z,100696.81
2023-05-16T08:03:24.123Z,100684.63
2023-05-16T08:06:06.291Z,100678.19
2023-05-16T08:08:36.487Z,100673.22
2023-05-16T08:11:03.668Z,100684.81
2023-05-16T08:13:31.707Z,100695.06
2023-05-16T08:15:58.665Z,100698.28
2023-05-16T08:18:25.539Z,100695.06
2023-05-16T08:20:54.970Z,100696.41
2023-05-16T08:23:21.852Z,100685.19
2023-05-16T08:25:51.831Z,100689.94
2023-05-16T08:28:18.614Z,100695.16
2023-05-16T08:30:47.799Z,100701.50
2023-05-16T08:33:15.221Z,100692.94
2023-05-16T08:35:46.848Z,100703.78
2023-05-16T08:38:13.732Z,100700.03
2023-05-16T08:40:41.295Z,100688.59
2023-05-16T08:43:08.727Z,100696.06
2023-05-16T08:45:35.744Z,100698.34
2023-05-16T08:48:08.694Z,100700.13
2023-05-16T08:50:37.498Z,100699.44
2023-05-16T08:53:14.826Z,100690.28
2023-05-16T08:55:44.231Z,100690.56
2023-05-16T08:58:13.000Z,100692.69
2023-05-16T09:00:40.924Z,100690.88
2023-05-16T09:03:08.465Z,100688.50
2023-05-16T09:05:36.255Z,100692.47
2023-05-16T09:08:03.226Z,100691.59
2023-05-16T09:10:30.177Z,100702.75
2023-05-16T09:12:57.122Z,100693.38
2023-05-16T09:15:23.923Z,100695.91
2023-05-16T09:18:01.487Z,100702.38
2023-05-16T09:20:28.648Z,100697.50
2023-05-16T09:23:00.924Z,100700.91
2023-05-16T09:25:32.225Z,100689.31
2023-05-16T09:28:03.049Z,100696.38
2023-05-16T09:30:35.558Z,100713.72
2023-05-16T09:33:06.637Z,100707.94
2023-05-16T09:38:04.196Z,100706.13
2023-05-16T09:40:34.104Z,100701.38
2023-05-16T09:43:07.794Z,100711.56
2023-05-16T09:45:36.926Z,100704.84
2023-05-16T09:48:14.960Z,100691.13
2023-05-16T09:50:54.410Z,100681.47
2023-05-16T09:53:33.492Z,100699.53
2023-05-16T09:56:12.658Z,100698.19
2023-05-16T09:58:42.826Z,100695.34
2023-05-16T10:01:13.018Z,100702.22
2023-05-16T10:03:44.087Z,100720.81
2023-05-16T10:06:13.745Z,100699.13
2023-05-16T10:08:43.848Z,100701.38
2023-05-16T10:11:17.126Z,100701.44
2023-05-16T10:16:42.078Z,100710.84
2023-05-16T10:19:13.944Z,100697.81
2023-05-16T10:27:41.611Z,100685.56
2023-05-16T10:30:10.985Z,100700.06
2023-05-16T10:32:41.956Z,100696.44
2023-05-16T10:35:11.098Z,100703.69
2023-05-16T10:37:42.176Z,100700.69
2023-05-16T10:40:11.638Z,100710.53
2023-05-16T10:42:44.442Z,100693.06
2023-05-16T10:45:37.009Z,100701.75
2023-05-16T10:48:15.460Z,100697.16
2023-05-16T10:51:03.578Z,100708.00
2023-05-16T10:53:36.255Z,100705.22
2023-05-16T10:56:12.045Z,100717.91
2023-05-16T10:58:38.753Z,100715.47
2023-05-16T11:01:30.394Z,100700.38
2023-05-16T11:04:20.217Z,100713.09
2023-05-16T11:07:28.377Z,100699.34
2023-05-16T11:10:36.503Z,100700.75
2023-05-16T11:13:26.502Z,100713.78
2023-05-16T11:16:39.512Z,100717.31
2023-05-16T11:19:10.986Z,100727.75
2023-05-16T11:22:19.465Z,100737.09
2023-05-16T11:25:14.370Z,100730.97
2023-05-16T11:27:47.898Z,100722.50
2023-05-16T11:30:19.404Z,100729.66
2023-05-16T11:32:48.777Z,100720.69
2023-05-16T11:35:18.687Z,100728.13
2023-05-16T11:37:48.656Z,100743.34
2023-05-16T11:40:17.294Z,100735.41
2023-05-16T11:42:48.526Z,100737.97
2023-05-16T11:45:23.021Z,100736.97
2023-05-16T11:47:50.282Z,100727.22
2023-05-16T11:50:23.759Z,100737.22
2023-05-16T11:53:15.923Z,100734.66
2023-05-16T11:55:43.054Z,100734.41
2023-05-16T11:58:12.281Z,100744.88
2023-05-16T12:03:38.893Z,100757.94
2023-05-16T12:06:14.404Z,100755.38
2023-05-16T12:19:48.118Z,100754.50
2023-05-16T12:22:21.956Z,100764.84
2023-05-16T12:27:33.575Z,100774.66
2023-05-16T12:30:06.280Z,100771.97
2023-05-16T12:36:01.681Z,100766.56
2023-05-16T12:44:22.165Z,100779.03
2023-05-16T13:06:12.051Z,100796.19
2023-05-16T13:08:42.812Z,100795.19
2023-05-16T13:16:36.094Z,100780.59
2023-05-16T13:19:16.235Z,100773.56
2023-05-16T13:29:51.582Z,100788.97
2023-05-16T13:35:13.023Z,100781.16
2023-05-16T13:37:42.713Z,100789.19
2023-05-16T13:40:12.020Z,100785.72
2023-05-16T13:48:10.173Z,100793.41
2023-05-16T13:50:44.199Z,100785.41
2023-05-16T13:58:37.059Z,100782.59
2023-05-16T14:03:57.616Z,100794.16
2023-05-16T14:26:10.968Z,100804.75
2023-05-16T14:39:31.849Z,100814.44
2023-05-16T14:42:08.683Z,100800.19
2023-05-16T14:50:03.133Z,100810.56
2023-05-16T14:52:42.280Z,100797.38
2023-05-16T14:55:16.409Z,100797.00
2023-05-16T15:00:29.561Z,100788.97
2023-05-16T15:11:08.955Z,100791.97
2023-05-16T15:13:36.085Z,100803.13
2023-05-16T15:16:12.207Z,100800.28
2023-05-16T15:18:42.816Z,100811.84
2023-05-16T15:21:16.318Z,100814.91
2023-05-16T15:26:39.030Z,100832.28
2023-05-16T15:29:36.747Z,100831.53
2023-05-16T15:32:12.041Z,100852.47
2023-05-16T15:43:12.853Z,100835.50
2023-05-16T15:48:25.437Z,100819.13
2023-05-16T15:53:36.598Z,100823.97
2023-05-16T15:56:06.222Z,100831.59
2023-05-16T16:09:31.224Z,100841.69
2023-05-16T16:11:58.091Z,100835.06
2023-05-16T16:14:25.704Z,100835.59
2023-05-16T16:16:55.131Z,100829.84
2023-05-16T16:19:40.113Z,100856.66
2023-05-16T16:22:07.004Z,100857.84
2023-05-16T16:24:56.820Z,100864.41
2023-05-16T16:27:26.451Z,100853.34
2023-05-16T16:29:55.366Z,100857.00
2023-05-16T16:32:23.335Z,100845.94
2023-05-16T16:34:50.478Z,100854.00
2023-05-16T16:37:17.299Z,100861.72
2023-05-16T16:58:49.269Z,100845.41
2023-05-16T17:01:16.161Z,100844.03
2023-05-16T17:33:42.174Z,100836.91
2023-05-16T17:41:37.853Z,100850.06
2023-05-16T18:00:26.305Z,100850.00
2023-05-16T18:21:46.492Z,100862.66
2023-05-16T18:27:01.078Z,100865.63
2023-05-16T18:37:32.187Z,100865.09
2023-05-16T18:48:24.748Z,100886.44
2023-05-16T18:56:28.045Z,100889.63
2023-05-16T19:01:42.548Z,100897.44
2023-05-16T19:04:09.463Z,100903.50
2023-05-16T19:06:40.294Z,100901.28
2023-05-16T19:14:34.183Z,100911.13
2023-05-16T19:22:22.534Z,100916.00
2023-05-16T19:24:51.308Z,100912.59
2023-05-16T19:33:00.143Z,100921.06
2023-05-16T19:38:15.929Z,100914.97
2023-05-16T19:43:59.356Z,100931.88
2023-05-16T19:46:30.573Z,100928.34
2023-05-16T20:00:15.782Z,100950.28
2023-05-16T20:02:50.244Z,100940.44
2023-05-16T20:10:54.634Z,100940.28
2023-05-16T20:35:16.428Z,100934.38
2023-05-16T21:18:28.551Z,100941.94
2023-05-16T21:20:59.131Z,100939.97
2023-05-16T21:34:16.484Z,100945.19
2023-05-16T21:53:03.035Z,100951.41
2023-05-16T21:55:37.305Z,100949.34
2023-05-16T21:58:17.223Z,100956.16
2023-05-16T22:00:43.876Z,100958.19
2023-05-16T22:03:11.242Z,100950.00
2023-05-16T22:05:40.487Z,100952.41
2023-05-16T22:08:08.280Z,100949.84
2023-05-16T22:10:37.579Z,100953.41
2023-05-16T22:13:09.923Z,100954.97
2023-05-16T22:15:36.634Z,100963.59
2023-05-16T22:18:03.529Z,100964.31
2023-05-16T22:20:30.299Z,100961.50
2023-05-16T22:22:59.551Z,100960.38
2023-05-16T22:25:26.263Z,100963.94
2023-05-16T22:27:56.485Z,100965.19
2023-05-16T22:30:23.123Z,100958.38
2023-05-16T22:32:49.908Z,100961.19
2023-05-16T22:35:17.054Z,100966.84
2023-05-16T22:37:43.781Z,100966.13
2023-05-16T22:40:18.873Z,100966.97
2023-05-16T22:42:45.506Z,100964.94
2023-05-16T22:45:18.160Z,100971.22
2023-05-16T22:47:48.213Z,100962.81
2023-05-16T22:50:33.594Z,100977.50
2023-05-16T22:53:36.275Z,100977.03
2023-05-16T22:56:23.222Z,100981.47
2023-05-16T22:58:50.238Z,100983.56
2023-05-16T23:01:16.879Z,100993.09
2023-05-16T23:03:45.059Z,101001.91
2023-05-16T23:06:18.254Z,100989.97
2023-05-16T23:08:44.985Z,100988.03
2023-05-16T23:11:15.612Z,100989.06
2023-05-16T23:13:42.211Z,100993.72
2023-05-16T23:16:08.846Z,100989.22
2023-05-16T23:18:35.774Z,100986.53
2023-05-16T23:21:08.788Z,100997.84
2023-05-16T23:23:37.679Z,100987.50
2023-05-16T23:26:04.645Z,100995.06
2023-05-16T23:28:31.399Z,100996.53
2023-05-16T23:30:58.143Z,101010.53
2023-05-16T23:33:25.175Z,101012.47
2023-05-16T23:35:51.967Z,101013.44
2023-05-16T23:38:18.835Z,101020.28
2023-05-16T23:40:45.675Z,101018.59
2023-05-16T23:43:16.276Z,101021.84
2023-05-16T23:45:43.013Z,101019.81
2023-05-16T23:48:09.894Z,101028.97
2023-05-16T23:50:40.072Z,101032.13
2023-05-16T23:53:18.604Z,101026.13
2023-05-16T23:55:46.024Z,101022.25
2023-05-16T23:58:12.716Z,101032.88
